createdAt,value
2023-03-06T00:00:49.646Z,14.98
2023-03-06T00:03:19.295Z,12.88
2023-03-06T00:05:46.412Z,10.98
2023-03-06T00:08:13.376Z,13.30
2023-03-06T00:10:40.554Z,15.87
2023-03-06T00:13:12.561Z,9.13
2023-03-06T00:15:39.422Z,12.05
2023-03-06T00:18:07.248Z,13.32
2023-03-06T00:20:35.098Z,12.82
2023-03-06T00:23:02.211Z,12.80
2023-03-06T00:25:29.150Z,14.47
2023-03-06T00:27:56.140Z,14.95
2023-03-06T00:30:24.907Z,10.50
2023-03-06T00:32:53.253Z,14.40
2023-03-06T00:35:20.240Z,15.25
2023-03-06T00:37:47.142Z,16.50
2023-03-06T00:40:17.951Z,15.82
2023-03-06T00:42:45.446Z,19.88
2023-03-06T00:45:12.697Z,18.52
2023-03-06T00:47:40.293Z,16.05
2023-03-06T00:50:08.465Z,19.23
2023-03-06T00:52:35.490Z,19.20
2023-03-06T00:55:02.728Z,18.83
2023-03-06T01:11:58.564Z,17.08
2023-03-06T01:14:25.190Z,19.67
2023-03-06T01:16:52.002Z,15.73
2023-03-06T01:19:18.642Z,20.73
2023-03-06T01:21:45.870Z,22.42
2023-03-06T01:24:12.435Z,16.03
2023-03-06T01:26:39.029Z,19.02
2023-03-06T01:29:06.486Z,20.45
2023-03-06T01:31:33.673Z,11.68
2023-03-06T01:34:00.677Z,19.03
2023-03-06T01:36:27.299Z,20.10
2023-03-06T01:38:53.929Z,21.48
2023-03-06T01:41:21.567Z,23.50
2023-03-06T01:43:48.954Z,24.00
2023-03-06T01:46:30.446Z,21.02
2023-03-06T01:49:08.530Z,20.38
2023-03-06T01:51:43.285Z,25.10
2023-03-06T01:54:17.836Z,24.23
2023-03-06T01:56:48.406Z,27.60
2023-03-06T01:59:15.163Z,29.48
2023-03-06T02:01:43.026Z,28.20
2023-03-06T02:04:10.385Z,15.13
2023-03-06T02:06:39.748Z,25.88
2023-03-06T02:09:06.968Z,27.90
2023-03-06T02:11:33.985Z,26.50
2023-03-06T02:14:00.661Z,32.83
2023-03-06T02:16:31.109Z,27.52
2023-03-06T02:19:00.392Z,24.40
2023-03-06T02:21:37.204Z,28.52
2023-03-06T02:24:18.843Z,29.13
2023-03-06T02:26:47.653Z,28.67
2023-03-06T02:29:21.732Z,33.97
2023-03-06T02:31:48.304Z,29.25
2023-03-06T02:34:14.857Z,28.38
2023-03-06T02:36:45.875Z,34.47
2023-03-06T02:39:13.531Z,36.92
2023-03-06T02:41:41.041Z,32.42
2023-03-06T02:44:07.956Z,36.58
2023-03-06T02:46:34.747Z,39.97
2023-03-06T02:49:01.403Z,31.00
2023-03-06T02:51:28.470Z,36.05
2023-03-06T02:53:55.125Z,35.20
2023-03-06T02:56:21.970Z,37.13
2023-03-06T02:58:48.607Z,31.60
2023-03-06T03:01:15.337Z,36.72
2023-03-06T03:03:42.071Z,28.15
2023-03-06T03:06:08.656Z,33.17
2023-03-06T03:08:35.334Z,35.58
2023-03-06T03:11:03.068Z,25.92
2023-03-06T03:13:29.722Z,30.77
2023-03-06T03:16:07.936Z,33.03
2023-03-06T03:18:35.739Z,33.95
2023-03-06T03:21:06.725Z,31.67
2023-03-06T03:23:33.423Z,32.58
2023-03-06T03:26:18.704Z,33.45
2023-03-06T03:28:45.732Z,32.05
2023-03-06T03:31:13.588Z,28.50
2023-03-06T03:33:40.880Z,28.83
2023-03-06T03:36:08.078Z,26.80
2023-03-06T03:38:35.077Z,33.03
2023-03-06T03:41:02.137Z,33.13
2023-03-06T03:43:28.826Z,28.60
2023-03-06T03:45:55.481Z,25.15
2023-03-06T03:48:22.077Z,24.48
2023-03-06T03:50:48.977Z,29.42
2023-03-06T03:53:15.582Z,25.48
2023-03-06T03:55:42.273Z,27.85
2023-03-06T03:58:08.814Z,25.60
2023-03-06T04:00:35.497Z,31.85
2023-03-06T04:03:02.053Z,19.25
2023-03-06T04:05:28.719Z,30.00
2023-03-06T04:07:55.308Z,29.40
2023-03-06T04:10:21.969Z,27.15
2023-03-06T04:12:48.715Z,30.13
2023-03-06T04:15:15.391Z,29.05
2023-03-06T04:17:42.010Z,35.13
2023-03-06T04:20:09.552Z,30.83
2023-03-06T04:22:36.206Z,27.95
2023-03-06T04:25:02.896Z,29.73
2023-03-06T04:27:29.488Z,33.83
2023-03-06T04:29:56.525Z,30.70
2023-03-06T04:32:24.036Z,33.73
2023-03-06T04:34:51.189Z,33.40
2023-03-06T04:37:22.966Z,35.60
2023-03-06T04:39:49.850Z,30.98
2023-03-06T04:42:16.727Z,34.40
2023-03-06T04:44:43.471Z,31.65
2023-03-06T04:47:10.678Z,36.22
2023-03-06T04:49:37.570Z,36.87
2023-03-06T04:52:04.657Z,36.65
2023-03-06T04:54:31.319Z,36.07
2023-03-06T04:56:58.036Z,36.72
2023-03-06T04:59:25.185Z,34.42
2023-03-06T05:01:52.246Z,34.30
2023-03-06T05:04:18.893Z,33.33
2023-03-06T05:06:45.577Z,41.50
2023-03-06T05:09:12.246Z,35.47
2023-03-06T05:11:38.828Z,41.90
2023-03-06T05:14:05.446Z,41.72
2023-03-06T05:16:32.086Z,30.45
2023-03-06T05:18:58.745Z,35.88
2023-03-06T05:21:25.420Z,39.10
2023-03-06T05:23:51.991Z,33.50
2023-03-06T05:26:18.584Z,42.60
2023-03-06T05:28:45.347Z,41.33
2023-03-06T05:31:12.195Z,40.67
2023-03-06T05:33:38.780Z,42.20
2023-03-06T05:36:08.277Z,34.28
2023-03-06T05:38:35.334Z,38.08
2023-03-06T05:41:01.960Z,43.00
2023-03-06T05:43:28.525Z,41.90
2023-03-06T05:46:03.238Z,35.05
2023-03-06T05:48:30.064Z,38.33
2023-03-06T05:50:57.968Z,40.20
2023-03-06T05:56:03.250Z,40.90
2023-03-06T05:58:31.224Z,35.45
2023-03-06T06:03:25.236Z,43.40
2023-03-06T06:05:52.989Z,37.95
2023-03-06T06:08:21.096Z,46.22
2023-03-06T06:10:47.702Z,41.05
2023-03-06T06:13:14.371Z,43.65
2023-03-06T06:15:40.963Z,39.50
2023-03-06T06:18:07.790Z,41.90
2023-03-06T06:20:35.607Z,51.70
2023-03-06T06:23:02.434Z,40.13
2023-03-06T06:25:33.055Z,44.33
2023-03-06T06:28:03.819Z,45.70
2023-03-06T06:30:31.536Z,33.95
2023-03-06T06:32:59.849Z,51.55
2023-03-06T06:35:27.143Z,37.08
2023-03-06T06:37:53.833Z,38.60
2023-03-06T06:40:21.262Z,40.75
2023-03-06T06:42:47.961Z,39.25
2023-03-06T06:45:15.012Z,40.53
2023-03-06T06:47:41.866Z,36.27
2023-03-06T06:50:13.510Z,34.83
2023-03-06T06:52:40.545Z,35.50
2023-03-06T06:55:07.563Z,35.70
2023-03-06T06:57:34.322Z,34.50
2023-03-06T07:00:11.361Z,29.05
2023-03-06T07:02:38.064Z,28.10
2023-03-06T07:05:05.698Z,34.25
2023-03-06T07:07:38.157Z,32.05
2023-03-06T07:10:08.584Z,32.80
2023-03-06T07:12:35.617Z,24.73
2023-03-06T07:15:02.965Z,29.50
2023-03-06T07:17:29.704Z,11.18
2023-03-06T07:19:56.382Z,16.88
2023-03-06T07:22:23.472Z,21.27
2023-03-06T07:24:50.185Z,22.37
2023-03-06T07:27:16.947Z,20.38
2023-03-06T07:36:55.652Z,14.40
2023-03-06T07:39:52.162Z,18.88
2023-03-06T07:42:21.590Z,32.05
2023-03-06T07:44:55.616Z,28.45
2023-03-06T07:47:29.853Z,30.25
2023-03-06T07:55:47.854Z,25.08
2023-03-06T07:58:41.883Z,33.10
2023-03-06T08:06:56.416Z,37.05
2023-03-06T08:09:51.332Z,36.05
2023-03-06T08:21:18.871Z,32.13
2023-03-06T08:27:27.210Z,39.47
2023-03-06T08:30:42.078Z,26.95
2023-03-06T08:42:27.953Z,37.80
2023-03-06T08:44:58.774Z,30.73
2023-03-06T08:47:25.756Z,23.50
2023-03-06T08:49:52.411Z,42.78
2023-03-06T08:52:20.299Z,40.53
2023-03-06T08:54:47.383Z,42.20
2023-03-06T08:57:14.042Z,35.30
2023-03-06T08:59:42.158Z,44.65
2023-03-06T09:02:12.892Z,36.92
2023-03-06T09:04:39.405Z,41.13
2023-03-06T09:07:07.824Z,34.40
2023-03-06T09:09:34.500Z,44.45
2023-03-06T09:12:08.467Z,44.47
2023-03-06T09:14:35.170Z,41.60
2023-03-06T09:17:01.739Z,38.88
2023-03-06T09:22:08.873Z,35.45
2023-03-06T09:24:37.769Z,41.70
2023-03-06T09:27:04.391Z,35.38
2023-03-06T09:29:30.922Z,36.75
2023-03-06T09:31:57.562Z,24.90
2023-03-06T09:34:24.125Z,32.95
2023-03-06T09:36:57.329Z,27.15
2023-03-06T09:39:26.410Z,30.83
2023-03-06T09:41:55.001Z,38.90
2023-03-06T09:44:26.056Z,35.45
2023-03-06T09:47:32.031Z,26.58
2023-03-06T09:50:22.096Z,36.83
2023-03-06T09:53:21.865Z,30.90
2023-03-06T09:55:56.864Z,32.53
2023-03-06T09:58:26.822Z,37.45
2023-03-06T10:01:25.414Z,23.70
2023-03-06T10:04:20.732Z,33.80
2023-03-06T10:06:50.329Z,35.33
2023-03-06T10:09:22.393Z,34.25
2023-03-06T10:12:02.458Z,29.80
2023-03-06T10:14:49.475Z,29.48
2023-03-06T10:17:21.599Z,34.17
2023-03-06T10:19:49.975Z,36.25
2023-03-06T10:22:33.384Z,25.23
2023-03-06T10:25:14.641Z,31.17
2023-03-06T10:27:48.580Z,29.65
2023-03-06T10:30:23.074Z,30.80
2023-03-06T10:32:58.364Z,24.27
2023-03-06T10:35:38.114Z,31.75
2023-03-06T10:38:31.220Z,31.70
2023-03-06T10:41:04.913Z,31.73
2023-03-06T10:43:36.491Z,18.20
2023-03-06T10:46:05.334Z,28.08
2023-03-06T10:48:36.058Z,25.40
2023-03-06T10:51:23.037Z,25.60
2023-03-06T10:54:19.727Z,25.47
2023-03-06T10:56:48.609Z,17.70
2023-03-06T10:59:17.269Z,18.95
2023-03-06T11:01:48.868Z,18.88
2023-03-06T11:04:23.013Z,22.88
2023-03-06T11:07:04.538Z,29.27
2023-03-06T11:09:33.240Z,29.75
2023-03-06T11:12:21.907Z,20.30
2023-03-06T11:15:07.051Z,35.78
2023-03-06T11:17:36.209Z,22.13
2023-03-06T11:20:14.814Z,25.20
2023-03-06T11:22:41.827Z,24.95
2023-03-06T11:25:14.113Z,33.30
2023-03-06T11:27:49.284Z,35.00
2023-03-06T11:30:23.434Z,23.10
2023-03-06T11:33:04.526Z,28.35
2023-03-06T11:35:41.205Z,33.05
2023-03-06T11:38:51.648Z,27.75
2023-03-06T11:42:02.903Z,33.80
2023-03-06T11:45:03.079Z,34.40
2023-03-06T11:47:38.549Z,31.35
2023-03-06T11:50:28.907Z,28.42
2023-03-06T11:53:20.025Z,25.98
2023-03-06T11:56:11.068Z,27.15
2023-03-06T11:59:23.076Z,24.88
2023-03-06T12:01:58.002Z,32.65
2023-03-06T12:04:52.602Z,27.75
2023-03-06T12:07:29.741Z,25.35
2023-03-06T12:10:23.667Z,16.98
2023-03-06T12:12:50.648Z,15.43
2023-03-06T12:15:42.104Z,14.27
2023-03-06T12:18:47.555Z,16.50
2023-03-06T12:21:44.394Z,23.90
2023-03-06T12:24:44.662Z,17.33
2023-03-06T12:27:32.192Z,27.10
2023-03-06T12:30:21.761Z,29.17
2023-03-06T12:32:51.675Z,19.00
2023-03-06T12:35:48.993Z,22.98
2023-03-06T12:39:02.375Z,17.90
2023-03-06T12:41:56.382Z,25.38
2023-03-06T12:44:54.138Z,25.85
2023-03-06T12:47:24.200Z,15.82
2023-03-06T12:49:55.926Z,25.20
2023-03-06T12:52:30.525Z,13.70
2023-03-06T12:55:08.983Z,21.60
2023-03-06T12:57:39.136Z,28.70
2023-03-06T13:00:06.520Z,30.02
2023-03-06T13:02:58.270Z,34.25
2023-03-06T13:05:50.696Z,16.58
2023-03-06T13:08:37.159Z,13.77
2023-03-06T13:11:18.868Z,23.42
2023-03-06T13:13:50.721Z,22.05
2023-03-06T13:16:35.831Z,21.08
2023-03-06T13:21:57.920Z,21.67
2023-03-06T13:30:45.037Z,28.10
2023-03-06T13:33:25.341Z,29.80
2023-03-06T13:35:54.864Z,30.17
2023-03-06T13:38:29.523Z,27.48
2023-03-06T13:41:35.078Z,36.75
2023-03-06T13:44:23.385Z,25.52
2023-03-06T13:46:57.193Z,24.60
2023-03-06T13:49:24.800Z,31.25
2023-03-06T13:51:57.233Z,27.88
2023-03-06T13:54:50.351Z,28.17
2023-03-06T13:57:43.083Z,17.75
2023-03-06T14:00:32.003Z,34.40
2023-03-06T14:03:41.463Z,27.92
2023-03-06T14:06:37.043Z,32.70
2023-03-06T14:09:13.816Z,31.58
2023-03-06T14:11:57.960Z,30.40
2023-03-06T14:14:34.655Z,30.60
2023-03-06T14:19:44.964Z,30.48
2023-03-06T14:25:28.075Z,30.23
2023-03-06T14:33:12.097Z,24.70
2023-03-06T14:38:20.330Z,23.92
2023-03-06T14:43:27.958Z,28.70
2023-03-06T14:48:44.703Z,28.20
2023-03-06T14:51:17.195Z,32.28
2023-03-06T14:53:45.743Z,40.67
2023-03-06T14:59:01.852Z,49.58
2023-03-06T15:01:40.141Z,38.40
2023-03-06T15:04:38.148Z,43.88
2023-03-06T15:07:12.948Z,35.03
2023-03-06T15:09:44.287Z,30.20
2023-03-06T15:12:23.121Z,36.53
2023-03-06T15:14:57.325Z,30.35
2023-03-06T15:17:32.819Z,33.88
2023-03-06T15:20:03.382Z,28.02
2023-03-06T15:22:41.104Z,27.95
2023-03-06T15:25:22.942Z,24.90
2023-03-06T15:27:55.675Z,26.35
2023-03-06T15:30:35.984Z,22.42
2023-03-06T15:33:28.590Z,25.80
2023-03-06T15:36:00.890Z,26.27
2023-03-06T15:38:42.734Z,25.08
2023-03-06T15:41:35.990Z,23.05
2023-03-06T15:44:12.546Z,24.05
2023-03-06T15:46:39.203Z,22.80
2023-03-06T15:49:14.629Z,22.05
2023-03-06T15:51:45.709Z,23.02
2023-03-06T15:54:15.680Z,22.00
2023-03-06T15:56:44.552Z,21.65
2023-03-06T15:59:22.216Z,23.30
2023-03-06T16:01:55.096Z,20.38
2023-03-06T16:04:23.354Z,20.70
2023-03-06T16:06:51.990Z,25.70
2023-03-06T16:12:03.628Z,17.65
2023-03-06T16:14:36.337Z,21.63
2023-03-06T16:19:45.222Z,19.67
2023-03-06T16:24:58.645Z,20.40
2023-03-06T16:27:35.909Z,23.17
2023-03-06T16:30:11.025Z,20.27
2023-03-06T16:38:20.450Z,30.77
2023-03-06T16:40:47.900Z,20.30
2023-03-06T16:43:23.147Z,21.33
2023-03-06T16:46:30.845Z,16.77
2023-03-06T16:51:49.616Z,19.88
2023-03-06T16:54:20.895Z,23.63
2023-03-06T16:59:43.281Z,22.85
2023-03-06T17:02:29.183Z,27.00
2023-03-06T19:09:04.815Z,22.15
2023-03-06T19:11:35.349Z,22.70
2023-03-06T19:14:11.144Z,25.73
2023-03-06T19:16:37.819Z,24.10
2023-03-06T19:19:07.839Z,22.08
2023-03-06T19:21:45.353Z,24.73
2023-03-06T19:24:30.630Z,23.20
2023-03-06T19:27:00.626Z,22.42
2023-03-06T19:29:33.713Z,24.33
2023-03-06T19:32:00.680Z,23.85
2023-03-06T19:34:28.737Z,22.67
2023-03-06T19:36:55.857Z,25.73
2023-03-06T19:39:22.764Z,23.63
2023-03-06T19:42:07.077Z,21.38
2023-03-06T19:44:57.228Z,20.20
2023-03-06T19:47:27.333Z,23.85
2023-03-06T19:50:04.933Z,20.88
2023-03-06T19:52:34.708Z,25.77
2023-03-06T19:55:02.465Z,25.95
2023-03-06T19:57:47.488Z,28.73
2023-03-06T20:00:29.254Z,23.67
2023-03-06T20:03:00.398Z,29.23
2023-03-06T20:05:35.403Z,30.50
2023-03-06T20:08:05.283Z,20.55
2023-03-06T20:10:36.131Z,23.63
2023-03-06T20:13:05.830Z,27.23
2023-03-06T20:15:36.895Z,22.10
2023-03-06T20:18:04.409Z,22.65
2023-03-06T20:20:31.094Z,22.75
2023-03-06T20:23:02.600Z,19.20
2023-03-06T20:25:29.177Z,22.20
2023-03-06T20:27:55.858Z,20.25
2023-03-06T20:30:23.088Z,23.30
2023-03-06T20:32:49.724Z,22.03
2023-03-06T20:35:16.519Z,21.80
2023-03-06T20:37:43.334Z,21.92
2023-03-06T20:40:10.765Z,20.88
2023-03-06T20:42:37.370Z,21.05
2023-03-06T20:45:04.337Z,22.45
2023-03-06T20:47:31.018Z,16.98
2023-03-06T20:49:57.739Z,15.38
2023-03-06T20:52:24.466Z,20.13
2023-03-06T20:54:51.285Z,20.38
2023-03-06T20:57:18.099Z,24.52
2023-03-06T20:59:45.491Z,25.60
2023-03-06T21:02:12.181Z,24.60
2023-03-06T21:04:41.107Z,21.08
2023-03-06T21:07:07.840Z,28.05
2023-03-06T21:09:37.714Z,25.17
2023-03-06T21:12:05.099Z,23.42
2023-03-06T21:14:31.839Z,25.27
2023-03-06T21:16:58.547Z,24.67
2023-03-06T21:19:25.537Z,24.15
2023-03-06T21:21:52.360Z,17.77
2023-03-06T21:24:20.966Z,23.17
2023-03-06T21:26:48.282Z,26.25
2023-03-06T21:29:14.938Z,19.80
2023-03-06T21:31:41.633Z,23.42
2023-03-06T21:34:08.332Z,28.33
2023-03-06T21:36:34.967Z,25.02
2023-03-06T21:39:01.859Z,23.75
2023-03-06T21:41:30.477Z,24.95
2023-03-06T21:43:59.615Z,29.33
2023-03-06T21:46:27.300Z,27.75
2023-03-06T21:48:54.838Z,27.75
2023-03-06T21:51:23.740Z,25.08
2023-03-06T21:53:52.147Z,26.15
2023-03-06T21:56:21.124Z,27.13
2023-03-06T21:58:47.994Z,20.48
2023-03-06T22:01:20.009Z,28.58
2023-03-06T22:03:46.714Z,26.45
2023-03-06T22:06:16.482Z,27.73
2023-03-06T22:08:44.137Z,30.20
2023-03-06T22:11:15.932Z,28.33
2023-03-06T22:13:42.973Z,29.77
2023-03-06T22:16:09.966Z,28.47
2023-03-06T22:18:37.530Z,28.40
2023-03-06T22:21:09.265Z,27.58
2023-03-06T22:23:36.405Z,24.15
2023-03-06T22:26:08.185Z,24.77
2023-03-06T22:28:35.276Z,28.80
2023-03-06T22:31:28.983Z,27.63
2023-03-06T22:33:58.170Z,28.50
2023-03-06T22:36:26.782Z,31.83
2023-03-06T22:38:58.146Z,22.67
2023-03-06T22:41:26.979Z,28.75
2023-03-06T22:43:59.247Z,29.00
2023-03-06T22:46:27.109Z,25.27
2023-03-06T22:51:23.325Z,26.80
2023-03-06T22:53:51.046Z,29.40
2023-03-06T22:56:19.967Z,26.05
2023-03-06T22:58:47.884Z,26.58
2023-03-06T23:03:45.504Z,29.10
2023-03-06T23:06:18.314Z,26.90
2023-03-06T23:08:49.953Z,29.33
2023-03-06T23:11:17.909Z,32.53
2023-03-06T23:16:14.061Z,21.92
2023-03-06T23:18:44.227Z,16.30
2023-03-06T23:21:14.077Z,16.52
2023-03-06T23:23:41.431Z,16.48
2023-03-06T23:26:08.965Z,25.10
2023-03-06T23:28:36.170Z,15.07
2023-03-06T23:31:11.215Z,23.37
2023-03-06T23:33:38.955Z,13.43
2023-03-06T23:36:11.963Z,25.05
2023-03-06T23:38:39.370Z,23.00
2023-03-06T23:41:16.474Z,11.60
2023-03-06T23:43:47.798Z,14.17
2023-03-06T23:46:49.496Z,14.45
2023-03-06T23:49:16.857Z,15.93
2023-03-06T23:51:46.348Z,19.45
2023-03-06T23:54:15.847Z,14.70
2023-03-06T23:56:45.428Z,10.68
2023-03-06T23:59:15.174Z,11.13
